sensor_id;sensor_type;location;lat;lon;timestamp;temperature;humidity
27016;DHT22;14557;0.000;0.000;2023-03-08T00:00:04;20.30;52.70
27016;DHT22;14557;0.000;0.000;2023-03-08T00:02:31;20.30;53.00
27016;DHT22;14557;0.000;0.000;2023-03-08T00:04:56;20.20;53.30
27016;DHT22;14557;0.000;0.000;2023-03-08T00:07:22;20.20;53.50
27016;DHT22;14557;0.000;0.000;2023-03-08T00:09:48;20.20;53.70
27016;DHT22;14557;0.000;0.000;2023-03-08T00:12:13;20.20;53.80
27016;DHT22;14557;0.000;0.000;2023-03-08T00:14:39;20.20;53.80
27016;DHT22;14557;0.000;0.000;2023-03-08T00:17:05;20.10;53.60
27016;DHT22;14557;0.000;0.000;2023-03-08T00:19:30;20.10;53.60
27016;DHT22;14557;0.000;0.000;2023-03-08T00:21:56;20.10;53.70
27016;DHT22;14557;0.000;0.000;2023-03-08T00:24:21;20.10;53.60
27016;DHT22;14557;0.000;0.000;2023-03-08T00:26:47;20.10;53.50
27016;DHT22;14557;0.000;0.000;2023-03-08T00:29:12;20.00;53.40
27016;DHT22;14557;0.000;0.000;2023-03-08T00:31:38;20.00;53.40
27016;DHT22;14557;0.000;0.000;2023-03-08T00:34:04;20.10;53.30
27016;DHT22;14557;0.000;0.000;2023-03-08T00:36:29;20.00;53.30
27016;DHT22;14557;0.000;0.000;2023-03-08T00:38:55;20.00;53.90
27016;DHT22;14557;0.000;0.000;2023-03-08T00:41:21;20.00;53.20
27016;DHT22;14557;0.000;0.000;2023-03-08T00:43:46;20.00;53.20
27016;DHT22;14557;0.000;0.000;2023-03-08T00:46:12;20.00;53.20
27016;DHT22;14557;0.000;0.000;2023-03-08T00:48:38;19.90;53.10
27016;DHT22;14557;0.000;0.000;2023-03-08T00:51:04;19.90;53.10
27016;DHT22;14557;0.000;0.000;2023-03-08T00:53:30;20.00;53.10
27016;DHT22;14557;0.000;0.000;2023-03-08T00:55:56;19.90;53.10
27016;DHT22;14557;0.000;0.000;2023-03-08T00:58:22;19.90;53.00
27016;DHT22;14557;0.000;0.000;2023-03-08T01:00:48;19.90;53.00
27016;DHT22;14557;0.000;0.000;2023-03-08T01:03:14;19.90;53.00
27016;DHT22;14557;0.000;0.000;2023-03-08T01:05:41;19.90;53.00
27016;DHT22;14557;0.000;0.000;2023-03-08T01:08:06;19.90;52.90
27016;DHT22;14557;0.000;0.000;2023-03-08T01:10:32;19.80;52.80
27016;DHT22;14557;0.000;0.000;2023-03-08T01:12:58;19.80;52.90
27016;DHT22;14557;0.000;0.000;2023-03-08T01:15:23;19.80;52.80
27016;DHT22;14557;0.000;0.000;2023-03-08T01:17:49;19.80;52.80
27016;DHT22;14557;0.000;0.000;2023-03-08T01:20:14;19.70;52.80
27016;DHT22;14557;0.000;0.000;2023-03-08T01:22:40;19.70;52.80
27016;DHT22;14557;0.000;0.000;2023-03-08T01:25:05;19.70;52.80
27016;DHT22;14557;0.000;0.000;2023-03-08T01:27:31;19.70;52.80
27016;DHT22;14557;0.000;0.000;2023-03-08T01:29:56;19.70;52.70
27016;DHT22;14557;0.000;0.000;2023-03-08T01:32:22;19.70;52.70
27016;DHT22;14557;0.000;0.000;2023-03-08T01:34:48;19.70;52.70
27016;DHT22;14557;0.000;0.000;2023-03-08T01:37:13;19.70;52.60
27016;DHT22;14557;0.000;0.000;2023-03-08T01:39:39;19.70;52.60
27016;DHT22;14557;0.000;0.000;2023-03-08T01:42:04;19.70;52.60
27016;DHT22;14557;0.000;0.000;2023-03-08T01:47:18;19.60;52.50
27016;DHT22;14557;0.000;0.000;2023-03-08T01:49:44;19.60;52.60
27016;DHT22;14557;0.000;0.000;2023-03-08T01:54:39;19.50;52.50
27016;DHT22;14557;0.000;0.000;2023-03-08T01:57:14;19.50;52.50
27016;DHT22;14557;0.000;0.000;2023-03-08T01:59:41;19.50;52.40
27016;DHT22;14557;0.000;0.000;2023-03-08T02:02:07;19.50;52.50
27016;DHT22;14557;0.000;0.000;2023-03-08T02:04:33;19.40;52.30
27016;DHT22;14557;0.000;0.000;2023-03-08T02:06:59;19.40;52.40
27016;DHT22;14557;0.000;0.000;2023-03-08T02:09:24;19.40;52.30
27016;DHT22;14557;0.000;0.000;2023-03-08T02:11:50;19.40;52.30
27016;DHT22;14557;0.000;0.000;2023-03-08T02:14:16;19.40;52.30
27016;DHT22;14557;0.000;0.000;2023-03-08T02:16:41;19.30;52.30
27016;DHT22;14557;0.000;0.000;2023-03-08T02:19:12;19.30;52.30
27016;DHT22;14557;0.000;0.000;2023-03-08T02:21:38;19.30;52.30
27016;DHT22;14557;0.000;0.000;2023-03-08T02:24:05;19.30;52.30
27016;DHT22;14557;0.000;0.000;2023-03-08T02:26:32;19.30;52.30
27016;DHT22;14557;0.000;0.000;2023-03-08T02:28:58;19.30;52.30
27016;DHT22;14557;0.000;0.000;2023-03-08T02:31:23;19.20;52.20
27016;DHT22;14557;0.000;0.000;2023-03-08T02:33:49;19.20;52.20
27016;DHT22;14557;0.000;0.000;2023-03-08T02:36:14;19.20;52.20
27016;DHT22;14557;0.000;0.000;2023-03-08T02:38:40;19.20;52.20
27016;DHT22;14557;0.000;0.000;2023-03-08T02:41:06;19.20;52.20
27016;DHT22;14557;0.000;0.000;2023-03-08T02:43:32;19.20;52.10
27016;DHT22;14557;0.000;0.000;2023-03-08T02:45:57;19.10;52.00
27016;DHT22;14557;0.000;0.000;2023-03-08T02:48:23;19.10;52.10
27016;DHT22;14557;0.000;0.000;2023-03-08T02:50:48;19.10;52.10
27016;DHT22;14557;0.000;0.000;2023-03-08T02:53:14;19.10;52.00
27016;DHT22;14557;0.000;0.000;2023-03-08T02:55:39;19.10;52.00
27016;DHT22;14557;0.000;0.000;2023-03-08T02:58:06;19.00;51.90
27016;DHT22;14557;0.000;0.000;2023-03-08T03:00:32;19.00;51.70
27016;DHT22;14557;0.000;0.000;2023-03-08T03:02:57;19.00;51.90
27016;DHT22;14557;0.000;0.000;2023-03-08T03:05:23;19.00;51.80
27016;DHT22;14557;0.000;0.000;2023-03-08T03:07:49;19.00;51.80
27016;DHT22;14557;0.000;0.000;2023-03-08T03:10:14;18.90;51.70
27016;DHT22;14557;0.000;0.000;2023-03-08T03:12:40;19.00;51.80
27016;DHT22;14557;0.000;0.000;2023-03-08T03:15:06;18.90;51.30
27016;DHT22;14557;0.000;0.000;2023-03-08T03:17:32;18.90;51.70
27016;DHT22;14557;0.000;0.000;2023-03-08T03:19:58;18.90;51.70
27016;DHT22;14557;0.000;0.000;2023-03-08T03:22:23;18.90;51.50
27016;DHT22;14557;0.000;0.000;2023-03-08T03:24:49;18.80;51.60
27016;DHT22;14557;0.000;0.000;2023-03-08T03:27:15;18.80;51.60
27016;DHT22;14557;0.000;0.000;2023-03-08T03:29:41;18.80;51.60
27016;DHT22;14557;0.000;0.000;2023-03-08T03:32:07;18.80;51.10
27016;DHT22;14557;0.000;0.000;2023-03-08T03:34:32;18.80;51.30
27016;DHT22;14557;0.000;0.000;2023-03-08T03:36:58;18.80;51.30
27016;DHT22;14557;0.000;0.000;2023-03-08T03:39:24;18.80;51.30
27016;DHT22;14557;0.000;0.000;2023-03-08T03:41:49;18.70;51.00
27016;DHT22;14557;0.000;0.000;2023-03-08T03:44:15;18.70;50.90
27016;DHT22;14557;0.000;0.000;2023-03-08T03:46:40;18.70;51.10
27016;DHT22;14557;0.000;0.000;2023-03-08T03:49:06;18.70;51.20
27016;DHT22;14557;0.000;0.000;2023-03-08T03:51:31;18.60;51.10
27016;DHT22;14557;0.000;0.000;2023-03-08T03:53:57;18.70;50.80
27016;DHT22;14557;0.000;0.000;2023-03-08T03:56:23;18.60;50.80
27016;DHT22;14557;0.000;0.000;2023-03-08T03:58:49;18.60;50.80
27016;DHT22;14557;0.000;0.000;2023-03-08T04:01:22;18.60;50.70
27016;DHT22;14557;0.000;0.000;2023-03-08T04:03:49;18.60;50.40
27016;DHT22;14557;0.000;0.000;2023-03-08T04:06:15;18.50;50.40
27016;DHT22;14557;0.000;0.000;2023-03-08T04:08:41;18.50;50.60
27016;DHT22;14557;0.000;0.000;2023-03-08T04:11:11;18.50;50.70
27016;DHT22;14557;0.000;0.000;2023-03-08T04:13:37;18.50;50.80
27016;DHT22;14557;0.000;0.000;2023-03-08T04:18:35;18.50;50.50
27016;DHT22;14557;0.000;0.000;2023-03-08T04:21:00;18.50;50.40
27016;DHT22;14557;0.000;0.000;2023-03-08T04:23:26;18.50;50.90
27016;DHT22;14557;0.000;0.000;2023-03-08T04:25:51;18.50;50.60
27016;DHT22;14557;0.000;0.000;2023-03-08T04:28:17;18.50;50.60
27016;DHT22;14557;0.000;0.000;2023-03-08T04:30:42;18.50;50.50
27016;DHT22;14557;0.000;0.000;2023-03-08T04:33:08;18.50;50.50
27016;DHT22;14557;0.000;0.000;2023-03-08T04:35:34;18.40;49.90
27016;DHT22;14557;0.000;0.000;2023-03-08T04:37:59;18.40;50.50
27016;DHT22;14557;0.000;0.000;2023-03-08T04:40:25;18.40;50.20
27016;DHT22;14557;0.000;0.000;2023-03-08T04:42:50;18.40;50.10
27016;DHT22;14557;0.000;0.000;2023-03-08T04:45:16;18.40;49.50
27016;DHT22;14557;0.000;0.000;2023-03-08T04:47:41;18.40;49.90
27016;DHT22;14557;0.000;0.000;2023-03-08T04:50:07;18.40;50.00
27016;DHT22;14557;0.000;0.000;2023-03-08T04:52:33;18.40;50.00
27016;DHT22;14557;0.000;0.000;2023-03-08T04:54:58;18.40;49.70
27016;DHT22;14557;0.000;0.000;2023-03-08T04:57:24;18.30;49.90
27016;DHT22;14557;0.000;0.000;2023-03-08T04:59:49;18.30;49.40
27016;DHT22;14557;0.000;0.000;2023-03-08T05:02:15;18.30;49.50
27016;DHT22;14557;0.000;0.000;2023-03-08T05:04:41;18.30;49.70
27016;DHT22;14557;0.000;0.000;2023-03-08T05:07:06;18.30;49.50
27016;DHT22;14557;0.000;0.000;2023-03-08T05:09:32;18.30;49.40
27016;DHT22;14557;0.000;0.000;2023-03-08T05:11:58;18.30;49.70
27016;DHT22;14557;0.000;0.000;2023-03-08T05:14:23;18.30;49.60
27016;DHT22;14557;0.000;0.000;2023-03-08T05:16:49;18.20;49.40
27016;DHT22;14557;0.000;0.000;2023-03-08T05:19:14;18.20;49.00
27016;DHT22;14557;0.000;0.000;2023-03-08T05:21:40;18.20;49.20
27016;DHT22;14557;0.000;0.000;2023-03-08T05:24:06;18.20;50.60
27016;DHT22;14557;0.000;0.000;2023-03-08T05:26:31;18.20;50.30
27016;DHT22;14557;0.000;0.000;2023-03-08T05:28:59;18.20;50.40
27016;DHT22;14557;0.000;0.000;2023-03-08T05:31:25;18.20;49.90
27016;DHT22;14557;0.000;0.000;2023-03-08T05:33:50;18.20;50.10
27016;DHT22;14557;0.000;0.000;2023-03-08T05:36:16;18.20;49.80
27016;DHT22;14557;0.000;0.000;2023-03-08T05:38:42;18.10;49.30
27016;DHT22;14557;0.000;0.000;2023-03-08T05:41:11;18.10;49.10
27016;DHT22;14557;0.000;0.000;2023-03-08T05:43:37;18.10;49.10
27016;DHT22;14557;0.000;0.000;2023-03-08T05:46:03;18.10;48.90
27016;DHT22;14557;0.000;0.000;2023-03-08T05:48:29;18.10;48.60
27016;DHT22;14557;0.000;0.000;2023-03-08T05:50:55;18.10;48.80
27016;DHT22;14557;0.000;0.000;2023-03-08T05:53:21;18.10;48.70
27016;DHT22;14557;0.000;0.000;2023-03-08T05:55:47;18.10;48.80
27016;DHT22;14557;0.000;0.000;2023-03-08T05:58:12;18.00;48.40
27016;DHT22;14557;0.000;0.000;2023-03-08T06:00:38;18.00;48.50
27016;DHT22;14557;0.000;0.000;2023-03-08T06:03:04;18.00;48.40
27016;DHT22;14557;0.000;0.000;2023-03-08T06:05:30;18.00;48.70
27016;DHT22;14557;0.000;0.000;2023-03-08T06:07:55;18.00;48.50
27016;DHT22;14557;0.000;0.000;2023-03-08T06:10:21;18.00;48.60
27016;DHT22;14557;0.000;0.000;2023-03-08T06:12:46;18.00;48.80
27016;DHT22;14557;0.000;0.000;2023-03-08T06:15:12;18.00;48.50
27016;DHT22;14557;0.000;0.000;2023-03-08T06:17:38;17.90;48.50
27016;DHT22;14557;0.000;0.000;2023-03-08T06:20:04;17.90;48.70
27016;DHT22;14557;0.000;0.000;2023-03-08T06:22:29;17.90;48.90
27016;DHT22;14557;0.000;0.000;2023-03-08T06:24:55;17.90;49.00
27016;DHT22;14557;0.000;0.000;2023-03-08T06:27:22;17.90;49.30
27016;DHT22;14557;0.000;0.000;2023-03-08T06:29:47;17.90;48.50
27016;DHT22;14557;0.000;0.000;2023-03-08T06:32:13;17.90;48.90
27016;DHT22;14557;0.000;0.000;2023-03-08T06:34:38;17.80;48.60
27016;DHT22;14557;0.000;0.000;2023-03-08T06:37:04;17.90;48.60
27016;DHT22;14557;0.000;0.000;2023-03-08T06:39:30;17.80;48.30
27016;DHT22;14557;0.000;0.000;2023-03-08T06:41:56;17.80;48.20
27016;DHT22;14557;0.000;0.000;2023-03-08T06:44:22;17.80;48.00
27016;DHT22;14557;0.000;0.000;2023-03-08T06:46:47;17.80;48.10
27016;DHT22;14557;0.000;0.000;2023-03-08T06:49:13;17.80;48.30
27016;DHT22;14557;0.000;0.000;2023-03-08T06:51:38;17.80;48.50
27016;DHT22;14557;0.000;0.000;2023-03-08T06:54:04;17.80;48.20
27016;DHT22;14557;0.000;0.000;2023-03-08T06:56:29;17.80;48.50
27016;DHT22;14557;0.000;0.000;2023-03-08T06:58:55;17.70;48.50
27016;DHT22;14557;0.000;0.000;2023-03-08T07:01:21;17.80;48.80
27016;DHT22;14557;0.000;0.000;2023-03-08T07:03:46;17.70;48.90
27016;DHT22;14557;0.000;0.000;2023-03-08T07:06:13;17.70;48.50
27016;DHT22;14557;0.000;0.000;2023-03-08T07:08:38;17.70;49.10
27016;DHT22;14557;0.000;0.000;2023-03-08T07:11:05;17.70;48.90
27016;DHT22;14557;0.000;0.000;2023-03-08T07:13:31;17.80;51.20
27016;DHT22;14557;0.000;0.000;2023-03-08T07:15:56;17.80;54.10
27016;DHT22;14557;0.000;0.000;2023-03-08T07:18:22;17.80;55.50
27016;DHT22;14557;0.000;0.000;2023-03-08T07:20:52;17.80;54.40
27016;DHT22;14557;0.000;0.000;2023-03-08T07:23:17;17.90;53.70
27016;DHT22;14557;0.000;0.000;2023-03-08T07:25:43;17.90;52.80
27016;DHT22;14557;0.000;0.000;2023-03-08T07:28:08;17.80;52.10
27016;DHT22;14557;0.000;0.000;2023-03-08T07:30:34;17.90;51.10
27016;DHT22;14557;0.000;0.000;2023-03-08T07:33:00;17.90;51.00
27016;DHT22;14557;0.000;0.000;2023-03-08T07:35:25;17.80;50.50
27016;DHT22;14557;0.000;0.000;2023-03-08T07:37:51;17.80;50.70
27016;DHT22;14557;0.000;0.000;2023-03-08T07:40:16;17.80;50.70
27016;DHT22;14557;0.000;0.000;2023-03-08T07:42:42;17.80;50.60
27016;DHT22;14557;0.000;0.000;2023-03-08T07:45:09;17.90;50.50
27016;DHT22;14557;0.000;0.000;2023-03-08T07:47:35;17.90;50.30
27016;DHT22;14557;0.000;0.000;2023-03-08T07:50:01;17.90;51.00
27016;DHT22;14557;0.000;0.000;2023-03-08T07:52:27;17.90;50.60
27016;DHT22;14557;0.000;0.000;2023-03-08T07:54:53;17.90;52.70
27016;DHT22;14557;0.000;0.000;2023-03-08T07:57:18;17.90;52.80
27016;DHT22;14557;0.000;0.000;2023-03-08T07:59:44;18.00;52.60
27016;DHT22;14557;0.000;0.000;2023-03-08T08:02:13;18.00;52.40
27016;DHT22;14557;0.000;0.000;2023-03-08T08:04:39;18.00;52.20
27016;DHT22;14557;0.000;0.000;2023-03-08T08:07:05;18.00;52.00
27016;DHT22;14557;0.000;0.000;2023-03-08T08:09:31;18.00;51.90
27016;DHT22;14557;0.000;0.000;2023-03-08T08:11:56;18.10;51.70
27016;DHT22;14557;0.000;0.000;2023-03-08T08:14:22;18.10;56.90
27016;DHT22;14557;0.000;0.000;2023-03-08T08:16:47;18.30;53.20
27016;DHT22;14557;0.000;0.000;2023-03-08T08:19:13;18.50;55.00
27016;DHT22;14557;0.000;0.000;2023-03-08T08:21:39;18.80;53.00
27016;DHT22;14557;0.000;0.000;2023-03-08T08:24:05;18.90;52.20
27016;DHT22;14557;0.000;0.000;2023-03-08T08:26:31;18.80;51.90
27016;DHT22;14557;0.000;0.000;2023-03-08T08:28:56;18.70;51.40
27016;DHT22;14557;0.000;0.000;2023-03-08T08:31:23;18.60;51.10
27016;DHT22;14557;0.000;0.000;2023-03-08T08:33:49;18.60;50.90
27016;DHT22;14557;0.000;0.000;2023-03-08T08:36:16;18.60;50.50
27016;DHT22;14557;0.000;0.000;2023-03-08T08:38:41;18.60;50.50
27016;DHT22;14557;0.000;0.000;2023-03-08T08:41:14;18.60;50.40
27016;DHT22;14557;0.000;0.000;2023-03-08T08:43:40;18.60;50.50
27016;DHT22;14557;0.000;0.000;2023-03-08T08:46:05;18.60;49.70
27016;DHT22;14557;0.000;0.000;2023-03-08T08:48:31;18.60;49.50
27016;DHT22;14557;0.000;0.000;2023-03-08T08:50:58;18.60;49.30
27016;DHT22;14557;0.000;0.000;2023-03-08T08:53:23;18.70;49.20
27016;DHT22;14557;0.000;0.000;2023-03-08T08:55:49;18.70;49.20
27016;DHT22;14557;0.000;0.000;2023-03-08T08:58:14;18.70;49.20
27016;DHT22;14557;0.000;0.000;2023-03-08T09:00:40;18.70;49.10
27016;DHT22;14557;0.000;0.000;2023-03-08T09:03:05;18.70;49.00
27016;DHT22;14557;0.000;0.000;2023-03-08T09:05:32;18.70;48.90
27016;DHT22;14557;0.000;0.000;2023-03-08T09:07:58;18.80;48.80
27016;DHT22;14557;0.000;0.000;2023-03-08T09:10:24;18.80;48.70
27016;DHT22;14557;0.000;0.000;2023-03-08T09:12:50;18.80;48.80
27016;DHT22;14557;0.000;0.000;2023-03-08T09:15:16;18.90;55.60
27016;DHT22;14557;0.000;0.000;2023-03-08T09:17:41;18.90;51.60
27016;DHT22;14557;0.000;0.000;2023-03-08T09:20:07;18.90;49.50
27016;DHT22;14557;0.000;0.000;2023-03-08T09:22:36;19.00;49.30
27016;DHT22;14557;0.000;0.000;2023-03-08T09:25:02;19.00;48.80
27016;DHT22;14557;0.000;0.000;2023-03-08T09:27:28;19.10;48.70
27016;DHT22;14557;0.000;0.000;2023-03-08T09:29:54;19.10;48.40
27016;DHT22;14557;0.000;0.000;2023-03-08T09:32:19;19.10;48.10
27016;DHT22;14557;0.000;0.000;2023-03-08T09:34:45;19.20;50.00
27016;DHT22;14557;0.000;0.000;2023-03-08T09:37:11;19.20;48.40
27016;DHT22;14557;0.000;0.000;2023-03-08T09:39:36;19.30;48.20
27016;DHT22;14557;0.000;0.000;2023-03-08T09:42:05;19.30;48.30
27016;DHT22;14557;0.000;0.000;2023-03-08T09:44:50;19.30;48.20
27016;DHT22;14557;0.000;0.000;2023-03-08T09:47:21;19.40;48.30
27016;DHT22;14557;0.000;0.000;2023-03-08T09:49:51;19.50;48.40
27016;DHT22;14557;0.000;0.000;2023-03-08T09:52:21;19.60;48.50
27016;DHT22;14557;0.000;0.000;2023-03-08T09:54:48;19.70;49.70
27016;DHT22;14557;0.000;0.000;2023-03-08T09:57:33;19.70;49.40
27016;DHT22;14557;0.000;0.000;2023-03-08T10:00:00;19.90;49.40
27016;DHT22;14557;0.000;0.000;2023-03-08T10:05:05;20.00;50.20
27016;DHT22;14557;0.000;0.000;2023-03-08T10:10:22;20.20;50.90
27016;DHT22;14557;0.000;0.000;2023-03-08T10:15:35;20.40;49.50
27016;DHT22;14557;0.000;0.000;2023-03-08T10:18:22;20.30;48.60
27016;DHT22;14557;0.000;0.000;2023-03-08T10:20:51;20.30;48.00
27016;DHT22;14557;0.000;0.000;2023-03-08T10:23:18;20.30;47.30
27016;DHT22;14557;0.000;0.000;2023-03-08T10:25:44;20.30;46.90
27016;DHT22;14557;0.000;0.000;2023-03-08T10:28:11;20.30;46.90
27016;DHT22;14557;0.000;0.000;2023-03-08T10:31:38;20.30;46.90
27016;DHT22;14557;0.000;0.000;2023-03-08T10:33:34;20.30;46.70
27016;DHT22;14557;0.000;0.000;2023-03-08T10:38:30;20.30;46.50
27016;DHT22;14557;0.000;0.000;2023-03-08T10:43:53;20.30;46.40
27016;DHT22;14557;0.000;0.000;2023-03-08T10:46:20;20.40;46.20
27016;DHT22;14557;0.000;0.000;2023-03-08T10:48:47;20.40;46.10
27016;DHT22;14557;0.000;0.000;2023-03-08T10:51:15;20.40;45.90
27016;DHT22;14557;0.000;0.000;2023-03-08T10:53:50;20.50;46.00
27016;DHT22;14557;0.000;0.000;2023-03-08T10:56:20;20.50;45.70
27016;DHT22;14557;0.000;0.000;2023-03-08T10:58:47;20.60;45.70
27016;DHT22;14557;0.000;0.000;2023-03-08T11:01:31;20.60;45.60
27016;DHT22;14557;0.000;0.000;2023-03-08T11:04:02;20.60;45.60
27016;DHT22;14557;0.000;0.000;2023-03-08T11:06:28;20.70;45.60
27016;DHT22;14557;0.000;0.000;2023-03-08T11:08:55;20.70;45.60
27016;DHT22;14557;0.000;0.000;2023-03-08T11:11:20;20.80;45.50
27016;DHT22;14557;0.000;0.000;2023-03-08T11:13:47;20.80;45.60
27016;DHT22;14557;0.000;0.000;2023-03-08T11:24:14;20.90;46.50
27016;DHT22;14557;0.000;0.000;2023-03-08T11:32:33;21.00;48.60
27016;DHT22;14557;0.000;0.000;2023-03-08T11:35:06;21.10;52.10
27016;DHT22;14557;0.000;0.000;2023-03-08T11:40:21;21.60;49.70
27016;DHT22;14557;0.000;0.000;2023-03-08T11:45:25;22.90;51.00
27016;DHT22;14557;0.000;0.000;2023-03-08T11:50:36;22.60;46.80
27016;DHT22;14557;0.000;0.000;2023-03-08T11:58:40;22.00;45.80
27016;DHT22;14557;0.000;0.000;2023-03-08T12:01:21;22.00;45.20
27016;DHT22;14557;0.000;0.000;2023-03-08T12:03:49;22.00;45.10
27016;DHT22;14557;0.000;0.000;2023-03-08T12:06:22;22.00;45.80
27016;DHT22;14557;0.000;0.000;2023-03-08T12:11:48;21.90;47.30
27016;DHT22;14557;0.000;0.000;2023-03-08T12:14:11;21.90;53.50
27016;DHT22;14557;0.000;0.000;2023-03-08T12:21:51;21.90;44.90
27016;DHT22;14557;0.000;0.000;2023-03-08T12:24:25;21.90;44.90
27016;DHT22;14557;0.000;0.000;2023-03-08T12:26:55;22.00;44.80
27016;DHT22;14557;0.000;0.000;2023-03-08T12:29:29;22.00;44.70
27016;DHT22;14557;0.000;0.000;2023-03-08T12:31:55;22.00;44.70
27016;DHT22;14557;0.000;0.000;2023-03-08T12:34:25;22.00;44.70
27016;DHT22;14557;0.000;0.000;2023-03-08T12:36:51;22.00;44.30
27016;DHT22;14557;0.000;0.000;2023-03-08T12:39:27;22.00;44.30
27016;DHT22;14557;0.000;0.000;2023-03-08T12:41:57;22.00;44.40
27016;DHT22;14557;0.000;0.000;2023-03-08T12:44:25;22.00;44.40
27016;DHT22;14557;0.000;0.000;2023-03-08T12:46:52;22.00;44.40
27016;DHT22;14557;0.000;0.000;2023-03-08T12:49:29;22.00;44.40
27016;DHT22;14557;0.000;0.000;2023-03-08T12:51:59;22.00;44.30
27016;DHT22;14557;0.000;0.000;2023-03-08T12:54:27;22.00;44.40
27016;DHT22;14557;0.000;0.000;2023-03-08T12:56:53;22.10;44.30
27016;DHT22;14557;0.000;0.000;2023-03-08T13:12:00;22.20;43.90
27016;DHT22;14557;0.000;0.000;2023-03-08T13:14:39;22.10;43.80
27016;DHT22;14557;0.000;0.000;2023-03-08T13:19:49;22.20;43.60
27016;DHT22;14557;0.000;0.000;2023-03-08T13:22:27;22.20;43.50
27016;DHT22;14557;0.000;0.000;2023-03-08T13:24:56;22.20;43.50
27016;DHT22;14557;0.000;0.000;2023-03-08T13:32:58;22.10;43.50
27016;DHT22;14557;0.000;0.000;2023-03-08T13:35:24;22.10;43.50
27016;DHT22;14557;0.000;0.000;2023-03-08T13:37:51;22.00;43.60
27016;DHT22;14557;0.000;0.000;2023-03-08T13:40:18;22.00;43.50
27016;DHT22;14557;0.000;0.000;2023-03-08T13:42:54;22.00;43.80
27016;DHT22;14557;0.000;0.000;2023-03-08T13:45:20;21.90;43.80
27016;DHT22;14557;0.000;0.000;2023-03-08T13:47:46;21.90;43.90
27016;DHT22;14557;0.000;0.000;2023-03-08T13:50:16;21.90;43.80
27016;DHT22;14557;0.000;0.000;2023-03-08T13:52:43;22.00;43.70
27016;DHT22;14557;0.000;0.000;2023-03-08T13:55:12;22.00;43.60
27016;DHT22;14557;0.000;0.000;2023-03-08T13:57:40;22.00;46.30
27016;DHT22;14557;0.000;0.000;2023-03-08T14:00:40;22.00;44.50
27016;DHT22;14557;0.000;0.000;2023-03-08T14:02:59;21.90;44.60
27016;DHT22;14557;0.000;0.000;2023-03-08T14:05:26;22.00;46.00
27016;DHT22;14557;0.000;0.000;2023-03-08T14:07:56;21.90;45.20
27016;DHT22;14557;0.000;0.000;2023-03-08T14:10:23;21.90;45.40
27016;DHT22;14557;0.000;0.000;2023-03-08T14:12:52;21.90;44.30
27016;DHT22;14557;0.000;0.000;2023-03-08T14:15:18;22.00;44.20
27016;DHT22;14557;0.000;0.000;2023-03-08T14:17:43;22.00;44.10
27016;DHT22;14557;0.000;0.000;2023-03-08T14:20:16;22.00;43.90
27016;DHT22;14557;0.000;0.000;2023-03-08T14:22:45;22.00;43.90
27016;DHT22;14557;0.000;0.000;2023-03-08T14:25:21;22.00;44.20
27016;DHT22;14557;0.000;0.000;2023-03-08T14:27:47;21.90;44.40
27016;DHT22;14557;0.000;0.000;2023-03-08T14:30:23;21.90;43.90
27016;DHT22;14557;0.000;0.000;2023-03-08T14:32:59;21.90;44.10
27016;DHT22;14557;0.000;0.000;2023-03-08T14:35:26;21.80;44.10
27016;DHT22;14557;0.000;0.000;2023-03-08T14:37:53;21.80;44.00
27016;DHT22;14557;0.000;0.000;2023-03-08T14:42:49;21.90;44.00
27016;DHT22;14557;0.000;0.000;2023-03-08T14:47:47;21.90;45.30
27016;DHT22;14557;0.000;0.000;2023-03-08T14:50:17;21.90;44.40
27016;DHT22;14557;0.000;0.000;2023-03-08T14:52:44;21.90;44.40
27016;DHT22;14557;0.000;0.000;2023-03-08T14:55:23;21.90;45.40
27016;DHT22;14557;0.000;0.000;2023-03-08T14:57:49;22.00;45.10
27016;DHT22;14557;0.000;0.000;2023-03-08T15:00:15;21.90;44.40
27016;DHT22;14557;0.000;0.000;2023-03-08T15:02:41;21.90;44.40
27016;DHT22;14557;0.000;0.000;2023-03-08T15:05:11;21.90;44.30
27016;DHT22;14557;0.000;0.000;2023-03-08T15:07:37;21.90;44.50
27016;DHT22;14557;0.000;0.000;2023-03-08T15:10:03;21.90;44.70
27016;DHT22;14557;0.000;0.000;2023-03-08T15:12:29;21.90;45.70
27016;DHT22;14557;0.000;0.000;2023-03-08T15:14:55;21.90;45.90
27016;DHT22;14557;0.000;0.000;2023-03-08T15:17:20;21.90;45.70
27016;DHT22;14557;0.000;0.000;2023-03-08T15:19:47;21.90;46.20
27016;DHT22;14557;0.000;0.000;2023-03-08T15:22:12;21.90;46.40
27016;DHT22;14557;0.000;0.000;2023-03-08T15:24:38;21.90;46.00
27016;DHT22;14557;0.000;0.000;2023-03-08T15:27:04;21.80;45.60
27016;DHT22;14557;0.000;0.000;2023-03-08T15:29:30;21.80;45.50
27016;DHT22;14557;0.000;0.000;2023-03-08T15:31:56;21.80;46.00
27016;DHT22;14557;0.000;0.000;2023-03-08T15:34:22;21.80;45.70
27016;DHT22;14557;0.000;0.000;2023-03-08T15:36:50;21.80;45.70
27016;DHT22;14557;0.000;0.000;2023-03-08T15:39:16;21.80;46.30
27016;DHT22;14557;0.000;0.000;2023-03-08T15:41:42;21.90;49.80
27016;DHT22;14557;0.000;0.000;2023-03-08T15:44:08;21.90;47.90
27016;DHT22;14557;0.000;0.000;2023-03-08T15:46:33;22.00;48.40
27016;DHT22;14557;0.000;0.000;2023-03-08T15:48:59;22.10;47.80
27016;DHT22;14557;0.000;0.000;2023-03-08T15:51:27;22.10;47.20
27016;DHT22;14557;0.000;0.000;2023-03-08T15:53:53;22.00;46.90
27016;DHT22;14557;0.000;0.000;2023-03-08T15:56:19;22.00;47.00
27016;DHT22;14557;0.000;0.000;2023-03-08T15:58:47;21.90;46.60
27016;DHT22;14557;0.000;0.000;2023-03-08T16:01:12;21.90;46.40
27016;DHT22;14557;0.000;0.000;2023-03-08T16:03:38;21.80;46.30
27016;DHT22;14557;0.000;0.000;2023-03-08T16:06:11;21.80;46.30
27016;DHT22;14557;0.000;0.000;2023-03-08T16:08:37;21.80;46.60
27016;DHT22;14557;0.000;0.000;2023-03-08T16:11:10;21.80;46.40
27016;DHT22;14557;0.000;0.000;2023-03-08T16:13:36;21.70;46.40
27016;DHT22;14557;0.000;0.000;2023-03-08T16:16:02;21.70;46.50
27016;DHT22;14557;0.000;0.000;2023-03-08T16:18:28;21.70;46.70
27016;DHT22;14557;0.000;0.000;2023-03-08T16:20:54;21.60;46.70
27016;DHT22;14557;0.000;0.000;2023-03-08T16:23:20;21.60;46.80
27016;DHT22;14557;0.000;0.000;2023-03-08T16:25:55;21.60;46.90
27016;DHT22;14557;0.000;0.000;2023-03-08T16:28:21;21.60;47.00
27016;DHT22;14557;0.000;0.000;2023-03-08T16:30:46;21.60;47.40
27016;DHT22;14557;0.000;0.000;2023-03-08T16:33:12;21.60;47.60
27016;DHT22;14557;0.000;0.000;2023-03-08T16:35:37;21.60;47.70
27016;DHT22;14557;0.000;0.000;2023-03-08T16:38:03;21.50;47.80
27016;DHT22;14557;0.000;0.000;2023-03-08T16:40:28;21.50;47.90
27016;DHT22;14557;0.000;0.000;2023-03-08T16:42:55;21.50;48.60
27016;DHT22;14557;0.000;0.000;2023-03-08T16:45:21;21.50;48.20
27016;DHT22;14557;0.000;0.000;2023-03-08T16:47:46;21.50;48.20
27016;DHT22;14557;0.000;0.000;2023-03-08T16:50:12;21.50;48.20
27016;DHT22;14557;0.000;0.000;2023-03-08T16:52:38;21.50;48.30
27016;DHT22;14557;0.000;0.000;2023-03-08T16:55:03;21.50;48.30
27016;DHT22;14557;0.000;0.000;2023-03-08T16:57:29;21.50;48.40
27016;DHT22;14557;0.000;0.000;2023-03-08T16:59:55;21.50;48.40
27016;DHT22;14557;0.000;0.000;2023-03-08T17:02:20;21.50;48.40
27016;DHT22;14557;0.000;0.000;2023-03-08T17:04:47;21.40;48.40